Time;durP1;ratioP1;P1;durP2;ratioP2;P2;SDS_P1;SDS_P2;PMS_P1;PMS_P2;Temp;Humidity;BMP_temperature;BMP_pressure;BME280_temperature;BME280_humidity;BME280_pressure;Samples;Min_cycle;Max_cycle;Signal;HPM_P1;HPM_P2
2022/08/19 00:01:55;;;;;;;13.40;12.03;;;;;;;;;;5023584;28;20234;-33
2022/08/19 00:04:24;;;;;;;14.70;12.83;;;;;;;;;;5022567;28;20211;-36
2022/08/19 00:06:51;;;;;;;13.97;12.47;;;;;;;;;;5013593;28;20278;-34
2022/08/19 00:09:19;;;;;;;14.07;12.63;;;;;;;;;;5021077;28;20214;-36
2022/08/19 00:11:47;;;;;;;14.13;12.68;;;;;;;;;;5014819;28;20222;-35
2022/08/19 00:14:15;;;;;;;15.50;13.93;;;;;;;;;;5010928;28;20207;-33
2022/08/19 00:16:44;;;;;;;12.90;11.03;;;;;;;;;;5010317;28;20459;-37
2022/08/19 00:19:12;;;;;;;15.50;13.60;;;;;;;;;;5021075;28;20207;-33
2022/08/19 00:21:39;;;;;;;14.32;12.55;;;;;;;;;;5015912;28;20227;-36
2022/08/19 00:24:07;;;;;;;15.80;13.17;;;;;;;;;;5023296;28;20563;-34
2022/08/19 00:26:35;;;;;;;15.50;13.90;;;;;;;;;;5015919;28;20209;-34
2022/08/19 00:29:04;;;;;;;14.80;12.70;;;;;;;;;;5031977;28;20217;-34
2022/08/19 00:31:32;;;;;;;16.50;14.13;;;;;;;;;;5023746;28;20203;-33
2022/08/19 00:33:59;;;;;;;14.27;12.87;;;;;;;;;;5026037;28;20217;-32
2022/08/19 00:36:26;;;;;;;14.57;13.07;;;;;;;;;;5027178;28;20210;-34
2022/08/19 00:38:53;;;;;;;17.73;12.90;;;;;;;;;;5021339;28;20207;-33
2022/08/19 00:41:22;;;;;;;14.20;12.67;;;;;;;;;;5025242;28;20230;-34
2022/08/19 00:43:58;;;;;;;12.17;10.97;;;;;;;;;;5010027;28;20207;-32
2022/08/19 00:46:26;;;;;;;15.17;12.97;;;;;;;;;;5008292;28;20209;-33
2022/08/19 00:48:53;;;;;;;12.90;11.60;;;;;;;;;;5011976;28;20199;-35
2022/08/19 00:51:21;;;;;;;16.10;13.13;;;;;;;;;;5016386;28;20203;-34
2022/08/19 00:53:48;;;;;;;17.10;13.07;;;;;;;;;;5014236;28;20202;-34
2022/08/19 00:56:17;;;;;;;12.37;11.13;;;;;;;;;;5020096;28;20577;-38
2022/08/19 00:58:44;;;;;;;14.97;12.43;;;;;;;;;;5013649;28;20223;-38
2022/08/19 01:01:11;;;;;;;14.37;12.53;;;;;;;;;;5014159;28;20226;-31
2022/08/19 01:03:40;;;;;;;15.23;12.90;;;;;;;;;;5019559;28;20276;-31
2022/08/19 01:06:07;;;;;;;15.97;13.00;;;;;;;;;;5029373;28;20289;-33
2022/08/19 01:08:35;;;;;;;15.02;12.60;;;;;;;;;;5017389;28;20592;-36
2022/08/19 01:11:02;;;;;;;15.50;13.90;;;;;;;;;;5012216;28;20222;-33
2022/08/19 01:13:32;;;;;;;17.33;14.15;;;;;;;;;;5013594;28;20590;-33
2022/08/19 01:16:02;;;;;;;14.87;13.03;;;;;;;;;;5017971;28;20210;-34
2022/08/19 01:18:29;;;;;;;15.87;14.23;;;;;;;;;;5019262;28;20237;-33
2022/08/19 01:21:00;;;;;;;17.05;14.50;;;;;;;;;;5030164;28;20222;-35
2022/08/19 01:23:42;;;;;;;17.33;14.83;;;;;;;;;;5025218;28;20498;-31
2022/08/19 01:26:10;;;;;;;17.93;15.07;;;;;;;;;;5021719;28;20249;-33
2022/08/19 01:28:38;;;;;;;15.57;11.77;;;;;;;;;;5013553;28;20230;-33
2022/08/19 01:31:05;;;;;;;16.23;14.43;;;;;;;;;;5013649;28;20306;-35
2022/08/19 01:33:33;;;;;;;17.23;14.63;;;;;;;;;;5021078;28;20203;-31
2022/08/19 01:36:05;;;;;;;18.07;14.87;;;;;;;;;;5030999;28;20369;-35
2022/08/19 01:38:37;;;;;;;16.77;14.65;;;;;;;;;;5016102;28;20223;-35
2022/08/19 01:41:04;;;;;;;15.87;14.23;;;;;;;;;;5022187;28;20219;-32
2022/08/19 01:43:31;;;;;;;14.30;12.57;;;;;;;;;;5032816;28;20604;-33
2022/08/19 01:45:58;;;;;;;17.93;14.23;;;;;;;;;;5033718;28;20214;-30
2022/08/19 01:48:25;;;;;;;15.90;14.03;;;;;;;;;;5021352;28;20226;-32
2022/08/19 01:50:52;;;;;;;17.00;14.47;;;;;;;;;;5013681;28;20206;-35
2022/08/19 01:53:19;;;;;;;14.85;13.25;;;;;;;;;;5014121;28;20207;-38
2022/08/19 01:55:48;;;;;;;14.98;12.98;;;;;;;;;;5025022;28;20226;-35
2022/08/19 01:58:17;;;;;;;16.33;13.23;;;;;;;;;;5031911;28;20218;-36
2022/08/19 02:00:45;;;;;;;16.67;14.80;;;;;;;;;;5033411;28;20205;-34
2022/08/19 02:03:12;;;;;;;17.57;14.53;;;;;;;;;;5023748;28;20205;-35
2022/08/19 02:05:39;;;;;;;14.87;13.30;;;;;;;;;;5018164;28;20218;-37
2022/08/19 02:08:07;;;;;;;16.27;13.43;;;;;;;;;;5014228;28;20234;-34
2022/08/19 02:10:34;;;;;;;15.13;12.60;;;;;;;;;;5015982;28;20662;-36
2022/08/19 02:13:03;;;;;;;13.80;11.43;;;;;;;;;;5012346;28;20208;-33
2022/08/19 02:15:30;;;;;;;14.97;12.90;;;;;;;;;;5012599;28;20235;-37
2022/08/19 02:17:57;;;;;;;14.63;13.03;;;;;;;;;;5023023;28;20226;-31
2022/08/19 02:20:24;;;;;;;17.17;13.40;;;;;;;;;;5028661;28;20199;-35
2022/08/19 02:22:52;;;;;;;14.83;12.70;;;;;;;;;;5011588;28;20241;-34
2022/08/19 02:25:19;;;;;;;13.97;12.33;;;;;;;;;;5028514;28;20207;-34
2022/08/19 02:27:46;;;;;;;17.13;13.20;;;;;;;;;;5034479;28;20226;-36
2022/08/19 02:30:16;;;;;;;14.50;13.00;;;;;;;;;;5030118;28;20206;-33
2022/08/19 02:32:44;;;;;;;15.07;12.87;;;;;;;;;;5023353;28;20192;-34
2022/08/19 02:35:11;;;;;;;13.77;11.33;;;;;;;;;;5030578;28;20198;-32
2022/08/19 02:40:23;;;;;;;17.13;13.90;;;;;;;;;;5015022;28;20206;-32
2022/08/19 02:42:50;;;;;;;16.07;13.63;;;;;;;;;;5027744;28;20249;-34
2022/08/19 02:45:19;;;;;;;14.77;12.93;;;;;;;;;;5023167;28;20203;-34
2022/08/19 02:47:47;;;;;;;15.73;11.90;;;;;;;;;;5024826;28;20232;-34
2022/08/19 02:50:14;;;;;;;13.67;12.33;;;;;;;;;;5020823;28;20211;-35
2022/08/19 02:52:41;;;;;;;14.07;11.73;;;;;;;;;;5017703;28;20704;-31
2022/08/19 02:55:09;;;;;;;16.53;13.03;;;;;;;;;;5021139;28;20213;-32
2022/08/19 02:57:36;;;;;;;17.67;13.33;;;;;;;;;;5025706;28;20224;-34
2022/08/19 03:00:05;;;;;;;13.17;11.73;;;;;;;;;;5031432;28;20214;-34
2022/08/19 03:02:34;;;;;;;13.33;11.93;;;;;;;;;;5025050;28;20219;-36
2022/08/19 03:05:01;;;;;;;13.23;11.23;;;;;;;;;;5020775;28;20212;-32
2022/08/19 03:07:28;;;;;;;14.27;12.47;;;;;;;;;;5025198;28;20222;-35
2022/08/19 03:09:55;;;;;;;13.13;10.97;;;;;;;;;;5015154;28;20226;-34
2022/08/19 03:12:22;;;;;;;13.47;10.50;;;;;;;;;;5023361;28;20202;-34
2022/08/19 03:14:50;;;;;;;12.10;10.60;;;;;;;;;;5031180;28;20218;-34
2022/08/19 03:17:18;;;;;;;14.17;12.00;;;;;;;;;;5025040;28;20233;-34
2022/08/19 03:19:46;;;;;;;12.60;10.73;;;;;;;;;;5014997;28;20210;-37
2022/08/19 03:22:13;;;;;;;12.80;10.87;;;;;;;;;;5011896;28;20235;-33
2022/08/19 03:24:41;;;;;;;13.73;11.67;;;;;;;;;;5017961;28;20199;-33
2022/08/19 03:27:08;;;;;;;15.77;12.70;;;;;;;;;;5012669;28;20227;-35
2022/08/19 03:29:38;;;;;;;15.27;12.40;;;;;;;;;;5011191;28;20199;-36
2022/08/19 03:32:05;;;;;;;14.93;13.33;;;;;;;;;;5011599;28;20203;-35
2022/08/19 03:34:34;;;;;;;14.37;12.87;;;;;;;;;;5016409;28;20211;-35
2022/08/19 03:37:05;;;;;;;16.50;13.40;;;;;;;;;;5011085;28;20307;-35
2022/08/19 03:39:32;;;;;;;16.57;13.03;;;;;;;;;;5021925;28;20206;-35
2022/08/19 03:42:01;;;;;;;14.50;12.73;;;;;;;;;;5013044;28;20688;-32
2022/08/19 03:44:28;;;;;;;18.30;12.67;;;;;;;;;;5010692;28;20211;-33
2022/08/19 03:46:56;;;;;;;15.80;12.93;;;;;;;;;;5014708;28;20230;-35
2022/08/19 03:49:24;;;;;;;12.43;10.67;;;;;;;;;;5010824;28;20203;-35
2022/08/19 03:51:51;;;;;;;16.00;13.17;;;;;;;;;;5008594;28;20234;-35
2022/08/19 03:54:22;;;;;;;14.80;12.23;;;;;;;;;;5012771;28;20597;-34
2022/08/19 03:56:51;;;;;;;15.13;12.60;;;;;;;;;;5029949;28;20217;-31
2022/08/19 03:59:19;;;;;;;15.80;13.13;;;;;;;;;;5025250;28;20202;-35
2022/08/19 04:01:47;;;;;;;16.70;12.93;;;;;;;;;;5029591;28;20222;-34
2022/08/19 04:04:14;;;;;;;13.47;10.83;;;;;;;;;;5013971;28;20206;-35
2022/08/19 04:06:41;;;;;;;13.60;11.30;;;;;;;;;;5010401;28;20225;-33
2022/08/19 04:09:10;;;;;;;18.17;14.20;;;;;;;;;;5014453;28;20689;-34
2022/08/19 04:11:40;;;;;;;18.57;14.80;;;;;;;;;;5023489;28;20264;-34
2022/08/19 04:14:07;;;;;;;18.30;13.07;;;;;;;;;;5029951;28;20210;-34
2022/08/19 04:16:35;;;;;;;18.43;13.27;;;;;;;;;;5023920;28;20637;-34
2022/08/19 04:19:03;;;;;;;13.80;12.30;;;;;;;;;;5018759;28;20564;-34
2022/08/19 04:21:30;;;;;;;16.23;12.37;;;;;;;;;;5009255;28;20199;-33
2022/08/19 04:23:58;;;;;;;14.53;12.20;;;;;;;;;;5021441;28;20214;-35
2022/08/19 04:26:26;;;;;;;13.40;11.77;;;;;;;;;;5025335;28;20215;-34
2022/08/19 04:28:55;;;;;;;13.70;10.93;;;;;;;;;;5010148;28;20207;-33
2022/08/19 04:31:25;;;;;;;15.33;12.80;;;;;;;;;;5018878;28;20209;-34
2022/08/19 04:33:53;;;;;;;14.17;11.73;;;;;;;;;;5021329;28;20202;-36
2022/08/19 04:36:22;;;;;;;15.17;13.10;;;;;;;;;;5030447;28;20202;-32
2022/08/19 04:38:49;;;;;;;16.47;12.87;;;;;;;;;;5020021;28;20220;-31
2022/08/19 04:44:03;;;;;;;14.57;11.43;;;;;;;;;;5032013;28;20209;-34
2022/08/19 04:46:31;;;;;;;15.07;12.77;;;;;;;;;;5028251;28;20210;-34
2022/08/19 04:48:58;;;;;;;15.37;12.17;;;;;;;;;;5016057;28;20301;-35
2022/08/19 04:51:26;;;;;;;14.07;12.53;;;;;;;;;;5029696;28;20213;-33
2022/08/19 04:53:53;;;;;;;16.50;12.30;;;;;;;;;;5025111;28;20201;-34
2022/08/19 04:56:22;;;;;;;15.83;13.40;;;;;;;;;;5017769;28;20199;-32
2022/08/19 04:58:50;;;;;;;13.27;11.63;;;;;;;;;;5030153;28;20209;-34
2022/08/19 05:01:21;;;;;;;19.57;13.40;;;;;;;;;;5024919;28;20209;-34
2022/08/19 05:03:48;;;;;;;14.77;11.93;;;;;;;;;;5021405;28;20231;-32
2022/08/19 05:06:16;;;;;;;11.33;9.63;;;;;;;;;;5014902;28;20210;-37
2022/08/19 05:08:43;;;;;;;15.77;11.63;;;;;;;;;;5023525;28;20707;-33
2022/08/19 05:11:12;;;;;;;19.00;13.27;;;;;;;;;;5098942;22;20234;-30
2022/08/19 05:13:39;;;;;;;16.87;13.40;;;;;;;;;;5032260;28;20183;-31
2022/08/19 05:16:06;;;;;;;16.67;14.20;;;;;;;;;;5027457;28;20213;-32
2022/08/19 05:24:08;;;;;;;15.70;13.33;;;;;;;;;;5024980;28;20353;-29
2022/08/19 05:26:35;;;;;;;13.83;11.13;;;;;;;;;;5036837;28;20237;-31
2022/08/19 05:29:03;;;;;;;16.00;12.43;;;;;;;;;;5047381;28;20224;-31
2022/08/19 05:31:31;;;;;;;11.47;10.27;;;;;;;;;;5038689;28;20207;-35
2022/08/19 05:33:59;;;;;;;17.23;13.53;;;;;;;;;;5039014;28;20213;-31
2022/08/19 05:36:27;;;;;;;15.10;12.30;;;;;;;;;;5029360;28;20281;-32
2022/08/19 05:38:54;;;;;;;17.60;11.50;;;;;;;;;;5031041;28;20209;-34
2022/08/19 05:41:23;;;;;;;14.73;12.10;;;;;;;;;;5047448;28;20210;-32
2022/08/19 05:43:51;;;;;;;14.80;11.70;;;;;;;;;;5031155;28;20236;-33
2022/08/19 05:46:19;;;;;;;14.97;13.10;;;;;;;;;;5028079;28;20207;-32
2022/08/19 05:48:48;;;;;;;14.90;12.33;;;;;;;;;;5037350;28;20221;-33
2022/08/19 05:51:16;;;;;;;19.03;13.27;;;;;;;;;;5039358;28;20237;-34
2022/08/19 05:53:45;;;;;;;14.77;12.93;;;;;;;;;;5027879;28;20213;-31
2022/08/19 05:56:14;;;;;;;17.63;13.67;;;;;;;;;;5025725;28;20260;-30
2022/08/19 05:58:41;;;;;;;15.00;12.57;;;;;;;;;;5036989;28;20264;-32
2022/08/19 06:01:11;;;;;;;21.93;13.83;;;;;;;;;;5053764;28;20311;-29
2022/08/19 06:03:39;;;;;;;16.00;12.93;;;;;;;;;;5044631;28;20222;-31
2022/08/19 06:06:07;;;;;;;17.43;13.60;;;;;;;;;;5018447;28;20229;-29
2022/08/19 06:08:35;;;;;;;18.23;13.53;;;;;;;;;;5021492;28;20236;-30
2022/08/19 06:11:17;;;;;;;19.17;14.50;;;;;;;;;;5032892;28;20209;-32
2022/08/19 06:13:50;;;;;;;18.40;13.23;;;;;;;;;;5032824;28;20301;-33
2022/08/19 06:16:22;;;;;;;19.00;14.03;;;;;;;;;;5019317;28;20231;-33
2022/08/19 06:18:51;;;;;;;15.97;13.67;;;;;;;;;;5036677;28;20233;-30
2022/08/19 06:21:18;;;;;;;19.83;15.00;;;;;;;;;;5033917;28;20201;-34
2022/08/19 06:23:47;;;;;;;16.57;14.40;;;;;;;;;;5025820;28;20233;-30
2022/08/19 06:26:15;;;;;;;18.67;14.17;;;;;;;;;;5041779;28;20344;-29
2022/08/19 06:28:46;;;;;;;14.93;12.47;;;;;;;;;;5034139;28;20244;-30
2022/08/19 06:31:14;;;;;;;18.90;13.87;;;;;;;;;;5030593;28;20207;-33
2022/08/19 06:33:41;;;;;;;17.73;14.40;;;;;;;;;;5034198;28;20230;-30
2022/08/19 06:36:09;;;;;;;17.83;14.63;;;;;;;;;;5044277;28;20204;-29
2022/08/19 06:38:36;;;;;;;14.90;12.07;;;;;;;;;;5032021;28;20221;-31
2022/08/19 06:41:05;;;;;;;20.57;16.33;;;;;;;;;;5040995;28;20213;-31
2022/08/19 06:43:32;;;;;;;19.30;14.30;;;;;;;;;;5051435;28;20237;-27
2022/08/19 06:46:00;;;;;;;18.87;15.73;;;;;;;;;;5052030;28;20216;-31
2022/08/19 06:48:27;;;;;;;16.73;14.30;;;;;;;;;;5029389;28;20256;-30
2022/08/19 06:50:55;;;;;;;17.10;14.27;;;;;;;;;;5038440;28;20209;-32
2022/08/19 06:53:22;;;;;;;18.97;15.37;;;;;;;;;;5036025;28;20201;-29
2022/08/19 06:55:57;;;;;;;22.23;16.20;;;;;;;;;;5041041;28;20197;-29
2022/08/19 06:58:25;;;;;;;17.17;14.37;;;;;;;;;;5013839;28;20253;-32
2022/08/19 07:00:52;;;;;;;18.77;15.13;;;;;;;;;;5015262;28;20218;-31
2022/08/19 07:03:20;;;;;;;19.57;14.27;;;;;;;;;;5043507;28;20242;-33
2022/08/19 07:05:48;;;;;;;17.97;15.07;;;;;;;;;;5052022;28;20196;-31
2022/08/19 07:08:15;;;;;;;16.77;13.53;;;;;;;;;;5031829;28;20237;-31
2022/08/19 07:10:44;;;;;;;20.40;16.43;;;;;;;;;;5035567;28;20204;-29
2022/08/19 07:13:11;;;;;;;18.23;15.07;;;;;;;;;;5053097;28;20208;-33
2022/08/19 07:15:39;;;;;;;19.67;15.10;;;;;;;;;;5035887;28;20257;-30
2022/08/19 07:18:14;;;;;;;22.73;16.97;;;;;;;;;;5039026;28;20233;-31
2022/08/19 07:20:42;;;;;;;21.00;17.20;;;;;;;;;;5053361;28;20193;-32
2022/08/19 07:23:10;;;;;;;22.33;16.27;;;;;;;;;;5035609;28;20237;-33
2022/08/19 07:25:37;;;;;;;19.00;15.77;;;;;;;;;;5042751;28;20206;-32
2022/08/19 07:28:07;;;;;;;22.03;16.70;;;;;;;;;;5050747;28;20239;-32
2022/08/19 07:30:34;;;;;;;22.80;16.97;;;;;;;;;;5034066;28;20218;-29
2022/08/19 07:33:03;;;;;;;18.80;15.23;;;;;;;;;;5041725;28;20215;-34
2022/08/19 07:35:31;;;;;;;21.80;16.80;;;;;;;;;;5033001;28;20205;-28
2022/08/19 07:37:59;;;;;;;20.13;16.73;;;;;;;;;;5023147;28;20219;-32
2022/08/19 07:40:26;;;;;;;19.80;16.20;;;;;;;;;;5036231;28;20217;-33
2022/08/19 07:42:53;;;;;;;23.37;16.77;;;;;;;;;;5049918;28;20228;-30
2022/08/19 07:45:20;;;;;;;21.03;17.00;;;;;;;;;;5051582;28;20215;-29
2022/08/19 07:47:47;;;;;;;21.23;17.13;;;;;;;;;;5034614;28;20221;-31
2022/08/19 07:50:16;;;;;;;22.10;16.60;;;;;;;;;;5051440;28;20205;-32
2022/08/19 07:52:44;;;;;;;19.97;16.43;;;;;;;;;;5039453;28;20208;-34
2022/08/19 07:55:12;;;;;;;20.90;16.80;;;;;;;;;;5040331;28;20209;-31
2022/08/19 07:57:39;;;;;;;20.00;15.63;;;;;;;;;;5047008;28;20911;-30
2022/08/19 08:00:07;;;;;;;22.73;16.83;;;;;;;;;;5044931;28;20209;-33
2022/08/19 08:02:34;;;;;;;24.03;17.30;;;;;;;;;;5037648;28;20205;-30
2022/08/19 08:10:32;;;;;;;21.10;17.10;;;;;;;;;;5025693;28;20205;-32
2022/08/19 08:13:00;;;;;;;22.90;17.27;;;;;;;;;;5049185;28;20213;-32
2022/08/19 08:15:27;;;;;;;23.10;17.87;;;;;;;;;;5037493;28;20217;-33
2022/08/19 08:17:54;;;;;;;23.50;18.43;;;;;;;;;;5036063;28;20236;-31
2022/08/19 08:20:21;;;;;;;22.57;17.33;;;;;;;;;;5039700;28;20207;-32
2022/08/19 08:25:36;;;;;;;21.73;16.70;;;;;;;;;;5025682;28;20209;-32
2022/08/19 08:28:03;;;;;;;22.83;17.53;;;;;;;;;;5049338;28;20222;-33
2022/08/19 08:30:32;;;;;;;22.30;17.03;;;;;;;;;;5033618;28;20217;-30
2022/08/19 08:32:59;;;;;;;25.03;18.63;;;;;;;;;;5038736;28;20281;-31
2022/08/19 08:35:26;;;;;;;24.93;17.50;;;;;;;;;;5031772;28;20201;-29
2022/08/19 08:37:56;;;;;;;21.10;16.47;;;;;;;;;;5028268;28;20230;-29
2022/08/19 08:40:25;;;;;;;21.00;17.93;;;;;;;;;;5027545;28;20219;-32
2022/08/19 08:42:58;;;;;;;18.50;16.03;;;;;;;;;;5051859;28;20205;-32
2022/08/19 08:45:25;;;;;;;20.80;16.63;;;;;;;;;;5034088;28;20212;-31
2022/08/19 08:47:54;;;;;;;20.90;16.83;;;;;;;;;;5033223;28;20224;-31
2022/08/19 08:50:25;;;;;;;20.37;16.13;;;;;;;;;;5036432;28;20208;-32
2022/08/19 08:52:54;;;;;;;21.43;17.00;;;;;;;;;;5034114;28;20210;-28
2022/08/19 08:55:24;;;;;;;23.80;17.93;;;;;;;;;;5036019;28;20215;-31
2022/08/19 08:57:55;;;;;;;21.90;17.07;;;;;;;;;;5052368;28;20236;-30
2022/08/19 09:00:24;;;;;;;23.23;15.90;;;;;;;;;;5052737;28;20209;-32
2022/08/19 09:02:52;;;;;;;21.53;16.73;;;;;;;;;;5029192;28;20218;-29
2022/08/19 09:05:20;;;;;;;21.00;17.03;;;;;;;;;;5037956;28;20216;-34
2022/08/19 09:07:55;;;;;;;20.23;15.67;;;;;;;;;;5031663;28;20230;-30
2022/08/19 09:10:28;;;;;;;22.73;17.67;;;;;;;;;;5025503;28;20237;-30
2022/08/19 09:13:00;;;;;;;20.80;16.77;;;;;;;;;;5049098;28;20215;-31
2022/08/19 09:15:31;;;;;;;20.93;16.87;;;;;;;;;;5039760;28;20237;-30
2022/08/19 09:18:03;;;;;;;21.90;17.37;;;;;;;;;;5038094;28;20236;-33
2022/08/19 09:20:31;;;;;;;22.77;17.53;;;;;;;;;;5039670;28;20244;-31
2022/08/19 09:22:59;;;;;;;18.37;15.00;;;;;;;;;;5027866;28;20248;-31
2022/08/19 09:25:28;;;;;;;20.87;17.00;;;;;;;;;;5044079;28;20215;-30
2022/08/19 09:27:56;;;;;;;22.10;17.50;;;;;;;;;;5052475;28;20231;-33
2022/08/19 09:30:25;;;;;;;23.50;17.07;;;;;;;;;;5052201;28;20218;-34
2022/08/19 09:32:53;;;;;;;21.13;16.93;;;;;;;;;;5028721;28;20206;-33
2022/08/19 09:35:21;;;;;;;24.80;17.43;;;;;;;;;;5037714;28;20211;-31
2022/08/19 09:37:49;;;;;;;22.83;17.07;;;;;;;;;;5031454;28;20229;-29
2022/08/19 09:40:16;;;;;;;22.43;17.57;;;;;;;;;;5047029;28;20257;-31
2022/08/19 09:42:46;;;;;;;26.33;17.63;;;;;;;;;;5049524;28;20208;-32
2022/08/19 09:45:14;;;;;;;18.53;14.33;;;;;;;;;;5044299;28;20259;-31
2022/08/19 09:47:41;;;;;;;25.37;17.67;;;;;;;;;;5047295;28;20220;-30
2022/08/19 09:50:09;;;;;;;19.93;15.30;;;;;;;;;;5055416;28;20213;-30
2022/08/19 09:52:36;;;;;;;22.57;17.60;;;;;;;;;;5035252;28;20206;-32
2022/08/19 09:55:04;;;;;;;22.23;16.83;;;;;;;;;;5031639;28;20266;-33
2022/08/19 09:57:31;;;;;;;18.83;15.87;;;;;;;;;;5048822;28;20216;-32
2022/08/19 10:00:00;;;;;;;20.30;16.83;;;;;;;;;;5040495;28;20219;-32
2022/08/19 10:02:27;;;;;;;19.37;15.67;;;;;;;;;;5027609;28;20209;-30
2022/08/19 10:07:39;;;;;;;21.07;15.03;;;;;;;;;;5031048;28;20251;-31
2022/08/19 10:10:09;;;;;;;20.13;15.87;;;;;;;;;;5042349;28;20204;-33
2022/08/19 10:12:36;;;;;;;21.03;16.03;;;;;;;;;;5035072;28;20216;-32
2022/08/19 10:15:06;;;;;;;22.77;17.20;;;;;;;;;;5035609;28;20601;-31
2022/08/19 10:17:34;;;;;;;21.70;16.80;;;;;;;;;;5032979;28;20229;-32
2022/08/19 10:20:03;;;;;;;25.50;16.40;;;;;;;;;;5036473;28;20217;-31
2022/08/19 10:22:31;;;;;;;22.77;16.67;;;;;;;;;;5046009;28;20224;-31
2022/08/19 10:24:58;;;;;;;22.43;17.50;;;;;;;;;;5039051;28;20245;-31
2022/08/19 10:27:25;;;;;;;25.67;18.13;;;;;;;;;;5035810;28;20231;-29
2022/08/19 10:29:52;;;;;;;21.67;17.80;;;;;;;;;;5035696;28;20208;-29
2022/08/19 10:32:21;;;;;;;23.90;18.63;;;;;;;;;;5035106;28;20237;-31
2022/08/19 10:34:49;;;;;;;19.67;17.10;;;;;;;;;;5043326;28;20198;-33
2022/08/19 10:37:17;;;;;;;22.80;17.00;;;;;;;;;;5032800;28;20225;-31
2022/08/19 10:39:47;;;;;;;23.73;17.97;;;;;;;;;;5038718;28;20244;-32
2022/08/19 10:42:15;;;;;;;22.40;18.30;;;;;;;;;;5044447;28;20243;-30
2022/08/19 10:44:43;;;;;;;21.93;18.27;;;;;;;;;;5051437;28;20229;-33
2022/08/19 10:47:11;;;;;;;24.10;18.27;;;;;;;;;;5029977;28;20231;-31
2022/08/19 10:52:33;;;;;;;22.73;18.53;;;;;;;;;;5037558;28;20211;-30
2022/08/19 10:52:35;;;;;;;23.03;18.60;;;;;;;;;;5018238;28;20204;-30
2022/08/19 10:57:47;;;;;;;23.57;19.43;;;;;;;;;;5016701;28;20228;-31
2022/08/19 11:00:15;;;;;;;26.40;20.10;;;;;;;;;;5037607;28;20213;-31
2022/08/19 11:02:42;;;;;;;26.33;19.17;;;;;;;;;;5029632;28;20208;-31
2022/08/19 11:05:11;;;;;;;25.70;18.67;;;;;;;;;;5030525;28;20236;-32
2022/08/19 11:07:39;;;;;;;25.13;19.13;;;;;;;;;;5017396;28;20229;-32
2022/08/19 11:10:07;;;;;;;25.63;19.13;;;;;;;;;;5030150;28;20204;-29
2022/08/19 11:12:34;;;;;;;24.33;19.10;;;;;;;;;;5049555;28;20209;-29
2022/08/19 11:15:01;;;;;;;23.93;19.73;;;;;;;;;;5045986;28;20206;-32
2022/08/19 11:17:31;;;;;;;23.67;18.33;;;;;;;;;;5026217;28;20314;-31
2022/08/19 11:19:59;;;;;;;25.13;18.27;;;;;;;;;;5042771;28;20238;-28
2022/08/19 11:22:28;;;;;;;28.20;20.20;;;;;;;;;;5026369;28;20200;-33
2022/08/19 11:24:55;;;;;;;27.90;20.30;;;;;;;;;;5034068;28;20229;-30
2022/08/19 11:27:22;;;;;;;22.60;18.50;;;;;;;;;;5037948;28;20229;-30
2022/08/19 11:29:50;;;;;;;24.13;18.30;;;;;;;;;;5026429;28;20209;-31
2022/08/19 11:32:17;;;;;;;26.37;19.27;;;;;;;;;;5026522;28;20209;-31
2022/08/19 11:34:45;;;;;;;23.00;18.80;;;;;;;;;;5040935;28;20197;-30
2022/08/19 11:37:12;;;;;;;21.60;18.43;;;;;;;;;;5026306;28;20244;-28
2022/08/19 11:39:41;;;;;;;24.60;19.53;;;;;;;;;;5021774;28;20273;-30
2022/08/19 11:44:49;;;;;;;24.00;18.13;;;;;;;;;;5049019;28;20224;-30
2022/08/19 11:47:16;;;;;;;24.30;19.87;;;;;;;;;;5027882;28;20229;-32
2022/08/19 11:49:44;;;;;;;24.80;18.93;;;;;;;;;;5047860;28;20208;-31
2022/08/19 11:52:11;;;;;;;24.13;19.03;;;;;;;;;;5041452;28;20209;-30
2022/08/19 11:54:38;;;;;;;23.80;18.90;;;;;;;;;;5041213;28;20207;-33
2022/08/19 11:57:07;;;;;;;22.63;18.77;;;;;;;;;;5053115;28;20227;-31
2022/08/19 11:59:34;;;;;;;23.57;18.70;;;;;;;;;;5052887;28;20208;-32
2022/08/19 12:02:01;;;;;;;26.10;19.53;;;;;;;;;;5016861;28;20225;-33
2022/08/19 12:04:28;;;;;;;25.60;19.73;;;;;;;;;;5029171;28;20228;-32
2022/08/19 12:06:55;;;;;;;21.47;17.13;;;;;;;;;;5031114;28;20238;-30
2022/08/19 12:09:22;;;;;;;17.33;14.37;;;;;;;;;;5028254;28;20212;-33
2022/08/19 12:11:50;;;;;;;22.30;18.67;;;;;;;;;;5031698;28;20208;-29
2022/08/19 12:14:19;;;;;;;24.43;18.50;;;;;;;;;;5032066;28;20208;-30
2022/08/19 12:16:47;;;;;;;24.93;19.40;;;;;;;;;;5024935;28;20257;-31
2022/08/19 12:19:14;;;;;;;24.50;18.77;;;;;;;;;;5041071;28;20271;-31
2022/08/19 12:24:10;;;;;;;18.23;15.60;;;;;;;;;;5027133;28;20225;-39
2022/08/19 12:26:39;;;;;;;25.17;19.17;;;;;;;;;;5043211;28;20197;-42
2022/08/19 12:29:08;;;;;;;21.77;17.27;;;;;;;;;;5032469;28;20283;-45
2022/08/19 12:31:39;;;;;;;21.67;17.13;;;;;;;;;;5028121;28;20197;-45
2022/08/19 12:34:07;;;;;;;22.33;17.07;;;;;;;;;;5006745;28;20214;-40
2022/08/19 12:36:34;;;;;;;23.27;18.13;;;;;;;;;;5022746;28;20278;-43
2022/08/19 12:39:02;;;;;;;20.23;17.23;;;;;;;;;;5011678;28;20225;-44
2022/08/19 12:41:29;;;;;;;22.10;17.07;;;;;;;;;;5030605;28;20216;-44
2022/08/19 12:43:56;;;;;;;21.60;17.07;;;;;;;;;;5035833;28;20296;-41
2022/08/19 12:46:23;;;;;;;21.90;16.47;;;;;;;;;;5022009;28;20214;-42
2022/08/19 12:48:53;;;;;;;20.90;17.40;;;;;;;;;;5016938;28;20212;-41
2022/08/19 12:51:20;;;;;;;22.50;17.63;;;;;;;;;;5016047;28;20209;-42
2022/08/19 12:53:47;;;;;;;21.00;16.53;;;;;;;;;;5004510;28;20202;-42
2022/08/19 12:56:15;;;;;;;22.00;17.60;;;;;;;;;;5023224;28;21246;-42
2022/08/19 12:58:42;;;;;;;25.43;18.53;;;;;;;;;;5032355;28;20474;-43
2022/08/19 13:01:11;;;;;;;21.60;16.80;;;;;;;;;;5016795;28;20208;-37
2022/08/19 13:03:38;;;;;;;19.93;16.63;;;;;;;;;;5025649;28;20207;-43
2022/08/19 13:06:07;;;;;;;19.93;15.87;;;;;;;;;;5032969;28;20228;-45
2022/08/19 13:08:38;;;;;;;20.30;15.43;;;;;;;;;;5012386;28;20255;-40
2022/08/19 13:11:10;;;;;;;19.93;15.20;;;;;;;;;;5022315;28;20250;-40
2022/08/19 13:13:40;;;;;;;20.27;16.20;;;;;;;;;;5016263;28;20246;-44
2022/08/19 13:16:09;;;;;;;20.43;16.30;;;;;;;;;;5011497;28;20207;-43
2022/08/19 13:18:36;;;;;;;20.20;16.30;;;;;;;;;;5027918;28;20232;-41
2022/08/19 13:21:04;;;;;;;21.73;16.50;;;;;;;;;;5016322;28;20257;-41
2022/08/19 13:23:33;;;;;;;18.63;15.37;;;;;;;;;;5014523;28;20207;-44
2022/08/19 13:26:07;;;;;;;21.07;16.90;;;;;;;;;;5024112;28;20257;-45
2022/08/19 13:34:01;;;;;;;18.63;15.77;;;;;;;;;;5022049;28;20188;-41
2022/08/19 13:36:31;;;;;;;21.27;15.90;;;;;;;;;;5032504;28;20205;-44
2022/08/19 13:39:00;;;;;;;22.57;16.13;;;;;;;;;;5009112;28;20245;-41
2022/08/19 13:41:27;;;;;;;18.10;14.60;;;;;;;;;;5026914;28;20200;-41
2022/08/19 13:43:55;;;;;;;23.77;17.93;;;;;;;;;;5036257;28;20236;-43
2022/08/19 13:46:22;;;;;;;22.97;17.80;;;;;;;;;;5021268;28;20223;-41
2022/08/19 13:48:49;;;;;;;20.50;16.50;;;;;;;;;;5022821;28;20278;-43
2022/08/19 13:51:17;;;;;;;17.37;14.67;;;;;;;;;;5017153;28;20240;-42
2022/08/19 13:53:44;;;;;;;18.57;15.37;;;;;;;;;;5006950;28;20215;-37
2022/08/19 13:56:17;;;;;;;18.90;15.40;;;;;;;;;;5024995;28;20277;-46
2022/08/19 13:58:44;;;;;;;18.43;14.53;;;;;;;;;;5035702;28;20229;-43
2022/08/19 14:01:14;;;;;;;19.43;15.57;;;;;;;;;;5036080;28;20205;-40
2022/08/19 14:03:44;;;;;;;17.30;14.70;;;;;;;;;;5010108;28;20231;-44
2022/08/19 14:06:11;;;;;;;18.57;15.23;;;;;;;;;;5031188;28;20224;-43
2022/08/19 14:08:43;;;;;;;19.33;15.67;;;;;;;;;;5006861;28;20233;-40
2022/08/19 14:11:10;;;;;;;19.57;15.40;;;;;;;;;;5034678;28;20205;-42
2022/08/19 14:13:39;;;;;;;16.17;13.10;;;;;;;;;;5035317;28;20208;-41
2022/08/19 14:16:08;;;;;;;19.63;14.83;;;;;;;;;;5007148;28;20210;-43
2022/08/19 14:18:36;;;;;;;19.47;15.33;;;;;;;;;;5029367;28;20304;-43
2022/08/19 14:21:05;;;;;;;16.10;13.73;;;;;;;;;;5035978;28;20227;-43
2022/08/19 14:23:34;;;;;;;15.53;13.87;;;;;;;;;;5016143;28;20213;-46
2022/08/19 14:26:08;;;;;;;20.30;15.13;;;;;;;;;;5024514;28;20227;-45
2022/08/19 14:28:36;;;;;;;16.37;13.27;;;;;;;;;;5036896;28;20233;-43
2022/08/19 14:31:07;;;;;;;13.63;12.13;;;;;;;;;;5017345;28;20205;-44
2022/08/19 14:33:34;;;;;;;14.93;12.40;;;;;;;;;;5009895;28;20260;-41
2022/08/19 14:36:02;;;;;;;17.53;14.97;;;;;;;;;;5028692;28;20213;-39
2022/08/19 14:38:31;;;;;;;20.77;14.57;;;;;;;;;;5020384;28;20633;-47
2022/08/19 14:40:58;;;;;;;17.60;15.13;;;;;;;;;;5021228;28;20206;-41
2022/08/19 14:43:25;;;;;;;19.93;15.07;;;;;;;;;;5016398;28;20235;-45
2022/08/19 14:45:52;;;;;;;17.93;14.90;;;;;;;;;;5012160;28;20324;-40
2022/08/19 14:48:21;;;;;;;20.30;16.07;;;;;;;;;;5017459;28;20227;-42
2022/08/19 14:50:48;;;;;;;20.70;17.77;;;;;;;;;;5030412;28;20215;-43
2022/08/19 14:53:17;;;;;;;19.90;15.60;;;;;;;;;;5019880;28;20288;-39
2022/08/19 14:55:45;;;;;;;20.17;16.10;;;;;;;;;;5016516;28;20513;-42
2022/08/19 14:58:12;;;;;;;15.87;13.37;;;;;;;;;;5033997;28;20316;-43